sensor_id;sensor_type;location;lat;lon;timestamp;temperature;humidity
51853;DHT22;37894;53.172;6.598;2023-04-08T00:03:39;4.80;99.90
51853;DHT22;37894;53.172;6.598;2023-04-08T00:08:32;4.80;99.90
51853;DHT22;37894;53.172;6.598;2023-04-08T00:10:58;4.40;99.90
51853;DHT22;37894;53.172;6.598;2023-04-08T00:13:25;5.00;99.90
51853;DHT22;37894;53.172;6.598;2023-04-08T00:15:51;4.10;99.90
51853;DHT22;37894;53.172;6.598;2023-04-08T00:18:16;4.90;99.90
51853;DHT22;37894;53.172;6.598;2023-04-08T00:20:42;4.90;99.90
51853;DHT22;37894;53.172;6.598;2023-04-08T00:23:08;4.90;99.90
51853;DHT22;37894;53.172;6.598;2023-04-08T00:25:34;4.80;99.90
51853;DHT22;37894;53.172;6.598;2023-04-08T00:30:26;4.80;99.90
51853;DHT22;37894;53.172;6.598;2023-04-08T00:32:52;4.70;99.90
51853;DHT22;37894;53.172;6.598;2023-04-08T00:35:18;4.70;99.90
51853;DHT22;37894;53.172;6.598;2023-04-08T00:37:44;5.00;99.90
51853;DHT22;37894;53.172;6.598;2023-04-08T00:40:10;4.70;99.90
51853;DHT22;37894;53.172;6.598;2023-04-08T00:45:03;4.60;99.90
51853;DHT22;37894;53.172;6.598;2023-04-08T00:47:30;4.60;99.90
51853;DHT22;37894;53.172;6.598;2023-04-08T00:49:56;4.70;99.90
51853;DHT22;37894;53.172;6.598;2023-04-08T00:54:48;4.50;99.90
51853;DHT22;37894;53.172;6.598;2023-04-08T00:57:14;4.30;99.90
51853;DHT22;37894;53.172;6.598;2023-04-08T00:59:40;5.60;99.90
51853;DHT22;37894;53.172;6.598;2023-04-08T01:02:25;4.40;99.90
51853;DHT22;37894;53.172;6.598;2023-04-08T01:07:47;4.40;99.90
51853;DHT22;37894;53.172;6.598;2023-04-08T01:10:25;4.20;99.90
51853;DHT22;37894;53.172;6.598;2023-04-08T01:13:05;4.40;99.90
51853;DHT22;37894;53.172;6.598;2023-04-08T01:15:35;4.50;99.90
51853;DHT22;37894;53.172;6.598;2023-04-08T01:18:05;4.40;99.90
51853;DHT22;37894;53.172;6.598;2023-04-08T01:20:32;4.40;99.90
51853;DHT22;37894;53.172;6.598;2023-04-08T01:23:17;3.50;99.90
51853;DHT22;37894;53.172;6.598;2023-04-08T01:25:54;4.70;99.90
51853;DHT22;37894;53.172;6.598;2023-04-08T01:28:24;4.40;99.90
51853;DHT22;37894;53.172;6.598;2023-04-08T01:30:54;4.40;99.90
51853;DHT22;37894;53.172;6.598;2023-04-08T01:33:21;4.20;99.90
51853;DHT22;37894;53.172;6.598;2023-04-08T01:35:47;5.10;99.90
51853;DHT22;37894;53.172;6.598;2023-04-08T01:38:16;4.20;99.90
51853;DHT22;37894;53.172;6.598;2023-04-08T01:40:43;4.00;99.90
51853;DHT22;37894;53.172;6.598;2023-04-08T01:43:11;4.10;99.90
51853;DHT22;37894;53.172;6.598;2023-04-08T01:45:38;4.20;99.90
51853;DHT22;37894;53.172;6.598;2023-04-08T01:50:31;4.30;99.90
51853;DHT22;37894;53.172;6.598;2023-04-08T01:52:59;3.90;99.90
51853;DHT22;37894;53.172;6.598;2023-04-08T01:55:26;3.40;99.90
51853;DHT22;37894;53.172;6.598;2023-04-08T01:57:53;4.20;99.90
51853;DHT22;37894;53.172;6.598;2023-04-08T02:00:27;4.10;99.90
51853;DHT22;37894;53.172;6.598;2023-04-08T02:02:52;4.10;99.90
51853;DHT22;37894;53.172;6.598;2023-04-08T02:07:49;7.00;99.90
51853;DHT22;37894;53.172;6.598;2023-04-08T02:10:15;3.70;99.90
51853;DHT22;37894;53.172;6.598;2023-04-08T02:12:42;4.10;99.90
51853;DHT22;37894;53.172;6.598;2023-04-08T02:17:45;3.90;99.90
51853;DHT22;37894;53.172;6.598;2023-04-08T02:20:18;3.60;99.90
51853;DHT22;37894;53.172;6.598;2023-04-08T02:22:49;3.80;99.90
51853;DHT22;37894;53.172;6.598;2023-04-08T02:25:21;4.80;99.90
51853;DHT22;37894;53.172;6.598;2023-04-08T02:30:14;4.30;99.90
51853;DHT22;37894;53.172;6.598;2023-04-08T02:32:42;3.30;99.90
51853;DHT22;37894;53.172;6.598;2023-04-08T02:35:09;3.80;99.90
51853;DHT22;37894;53.172;6.598;2023-04-08T02:37:36;3.90;99.90
51853;DHT22;37894;53.172;6.598;2023-04-08T02:42:28;3.80;99.90
51853;DHT22;37894;53.172;6.598;2023-04-08T02:44:53;3.80;99.90
51853;DHT22;37894;53.172;6.598;2023-04-08T02:47:19;3.80;99.90
51853;DHT22;37894;53.172;6.598;2023-04-08T02:52:11;3.50;99.90
51853;DHT22;37894;53.172;6.598;2023-04-08T02:57:03;3.60;99.90
51853;DHT22;37894;53.172;6.598;2023-04-08T02:59:29;3.90;99.90
51853;DHT22;37894;53.172;6.598;2023-04-08T03:01:55;3.80;99.90
51853;DHT22;37894;53.172;6.598;2023-04-08T03:06:47;3.40;99.90
51853;DHT22;37894;53.172;6.598;2023-04-08T03:11:38;4.20;99.90
51853;DHT22;37894;53.172;6.598;2023-04-08T03:16:30;3.40;99.90
51853;DHT22;37894;53.172;6.598;2023-04-08T03:18:56;4.50;99.90
51853;DHT22;37894;53.172;6.598;2023-04-08T03:23:49;3.30;99.90
51853;DHT22;37894;53.172;6.598;2023-04-08T03:26:14;3.60;99.90
51853;DHT22;37894;53.172;6.598;2023-04-08T03:28:40;4.10;99.90
51853;DHT22;37894;53.172;6.598;2023-04-08T03:35:58;2.70;99.90
51853;DHT22;37894;53.172;6.598;2023-04-08T03:38:23;3.30;99.90
51853;DHT22;37894;53.172;6.598;2023-04-08T03:40:49;3.50;99.90
51853;DHT22;37894;53.172;6.598;2023-04-08T03:43:15;3.20;99.90
51853;DHT22;37894;53.172;6.598;2023-04-08T03:45:41;3.60;99.90
51853;DHT22;37894;53.172;6.598;2023-04-08T03:48:06;3.50;99.90
51853;DHT22;37894;53.172;6.598;2023-04-08T03:55:24;3.20;99.90
51853;DHT22;37894;53.172;6.598;2023-04-08T03:57:50;2.70;99.90
51853;DHT22;37894;53.172;6.598;2023-04-08T04:00:16;3.30;99.90
51853;DHT22;37894;53.172;6.598;2023-04-08T04:02:41;3.50;99.90
51853;DHT22;37894;53.172;6.598;2023-04-08T04:05:07;3.30;99.90
51853;DHT22;37894;53.172;6.598;2023-04-08T04:07:33;3.30;99.90
51853;DHT22;37894;53.172;6.598;2023-04-08T04:09:59;3.30;99.90
51853;DHT22;37894;53.172;6.598;2023-04-08T04:14:51;4.00;99.90
51853;DHT22;37894;53.172;6.598;2023-04-08T04:17:16;3.20;99.90
51853;DHT22;37894;53.172;6.598;2023-04-08T04:19:42;4.00;99.90
51853;DHT22;37894;53.172;6.598;2023-04-08T04:24:34;3.70;99.90
51853;DHT22;37894;53.172;6.598;2023-04-08T04:29:26;2.00;99.90
51853;DHT22;37894;53.172;6.598;2023-04-08T04:31:52;3.10;99.90
51853;DHT22;37894;53.172;6.598;2023-04-08T04:34:17;3.00;99.90
51853;DHT22;37894;53.172;6.598;2023-04-08T04:36:43;3.00;99.90
51853;DHT22;37894;53.172;6.598;2023-04-08T04:39:09;2.90;99.90
51853;DHT22;37894;53.172;6.598;2023-04-08T04:41:34;2.90;99.90
51853;DHT22;37894;53.172;6.598;2023-04-08T04:44:05;3.10;99.90
51853;DHT22;37894;53.172;6.598;2023-04-08T04:46:31;2.60;99.90
51853;DHT22;37894;53.172;6.598;2023-04-08T04:48:56;2.90;99.90
51853;DHT22;37894;53.172;6.598;2023-04-08T04:51:22;2.90;99.90
51853;DHT22;37894;53.172;6.598;2023-04-08T04:53:48;2.70;99.90
51853;DHT22;37894;53.172;6.598;2023-04-08T04:58:40;3.10;99.90
51853;DHT22;37894;53.172;6.598;2023-04-08T05:01:06;2.90;99.90
51853;DHT22;37894;53.172;6.598;2023-04-08T05:03:32;3.00;99.90
51853;DHT22;37894;53.172;6.598;2023-04-08T05:05:58;3.00;99.90
51853;DHT22;37894;53.172;6.598;2023-04-08T05:10:50;3.00;99.90
51853;DHT22;37894;53.172;6.598;2023-04-08T05:13:16;2.90;99.90
51853;DHT22;37894;53.172;6.598;2023-04-08T05:18:10;2.90;99.90
51853;DHT22;37894;53.172;6.598;2023-04-08T05:23:02;3.20;99.90
51853;DHT22;37894;53.172;6.598;2023-04-08T05:25:29;3.10;99.90
51853;DHT22;37894;53.172;6.598;2023-04-08T05:32:47;4.20;99.90
51853;DHT22;37894;53.172;6.598;2023-04-08T05:35:13;3.60;99.90
51853;DHT22;37894;53.172;6.598;2023-04-08T05:37:39;2.90;99.90
51853;DHT22;37894;53.172;6.598;2023-04-08T05:40:05;4.00;99.90
51853;DHT22;37894;53.172;6.598;2023-04-08T05:42:31;3.10;99.90
51853;DHT22;37894;53.172;6.598;2023-04-08T05:44:57;3.60;99.90
51853;DHT22;37894;53.172;6.598;2023-04-08T05:47:23;3.40;99.90
51853;DHT22;37894;53.172;6.598;2023-04-08T05:49:49;3.50;99.90
51853;DHT22;37894;53.172;6.598;2023-04-08T05:52:14;3.60;99.90
51853;DHT22;37894;53.172;6.598;2023-04-08T05:54:44;3.60;99.90
51853;DHT22;37894;53.172;6.598;2023-04-08T05:59:36;4.00;99.90
51853;DHT22;37894;53.172;6.598;2023-04-08T06:04:28;4.00;99.90
51853;DHT22;37894;53.172;6.598;2023-04-08T06:06:54;4.40;99.90
51853;DHT22;37894;53.172;6.598;2023-04-08T06:09:24;4.50;99.90
51853;DHT22;37894;53.172;6.598;2023-04-08T06:11:50;3.60;99.90
51853;DHT22;37894;53.172;6.598;2023-04-08T06:19:08;5.00;99.90
51853;DHT22;37894;53.172;6.598;2023-04-08T06:21:34;4.90;99.90
51853;DHT22;37894;53.172;6.598;2023-04-08T06:23:59;4.90;99.90
51853;DHT22;37894;53.172;6.598;2023-04-08T06:26:25;5.10;99.90
51853;DHT22;37894;53.172;6.598;2023-04-08T06:28:52;5.40;99.90
51853;DHT22;37894;53.172;6.598;2023-04-08T06:33:44;5.40;99.90
51853;DHT22;37894;53.172;6.598;2023-04-08T06:36:10;4.70;99.90
51853;DHT22;37894;53.172;6.598;2023-04-08T06:38:37;6.40;99.90
51853;DHT22;37894;53.172;6.598;2023-04-08T06:41:04;6.40;99.90
51853;DHT22;37894;53.172;6.598;2023-04-08T06:43:31;5.50;99.90
51853;DHT22;37894;53.172;6.598;2023-04-08T06:45:57;6.30;99.90
51853;DHT22;37894;53.172;6.598;2023-04-08T06:48:23;5.60;99.90
51853;DHT22;37894;53.172;6.598;2023-04-08T06:50:55;5.60;99.90
51853;DHT22;37894;53.172;6.598;2023-04-08T06:53:22;5.40;99.90
51853;DHT22;37894;53.172;6.598;2023-04-08T06:55:48;5.30;99.90
51853;DHT22;37894;53.172;6.598;2023-04-08T06:58:14;6.00;99.90
51853;DHT22;37894;53.172;6.598;2023-04-08T07:00:41;6.00;99.90
51853;DHT22;37894;53.172;6.598;2023-04-08T07:03:07;5.70;99.90
51853;DHT22;37894;53.172;6.598;2023-04-08T07:05:35;5.50;99.90
51853;DHT22;37894;53.172;6.598;2023-04-08T07:08:01;5.80;99.90
51853;DHT22;37894;53.172;6.598;2023-04-08T07:10:27;5.80;99.90
51853;DHT22;37894;53.172;6.598;2023-04-08T07:12:53;6.40;99.90
51853;DHT22;37894;53.172;6.598;2023-04-08T07:15:19;6.30;99.90
51853;DHT22;37894;53.172;6.598;2023-04-08T07:17:45;7.10;99.90
51853;DHT22;37894;53.172;6.598;2023-04-08T07:20:12;6.50;99.90
51853;DHT22;37894;53.172;6.598;2023-04-08T07:22:38;6.70;99.90
51853;DHT22;37894;53.172;6.598;2023-04-08T07:25:05;6.70;99.90
51853;DHT22;37894;53.172;6.598;2023-04-08T07:27:32;6.70;99.90
51853;DHT22;37894;53.172;6.598;2023-04-08T07:29:58;5.80;99.90
51853;DHT22;37894;53.172;6.598;2023-04-08T07:37:16;6.10;99.90
51853;DHT22;37894;53.172;6.598;2023-04-08T07:39:42;7.10;99.90
51853;DHT22;37894;53.172;6.598;2023-04-08T07:44:34;7.10;99.90
51853;DHT22;37894;53.172;6.598;2023-04-08T07:47:00;6.40;99.90
51853;DHT22;37894;53.172;6.598;2023-04-08T07:49:25;7.30;99.90
51853;DHT22;37894;53.172;6.598;2023-04-08T07:51:51;7.50;99.90
51853;DHT22;37894;53.172;6.598;2023-04-08T07:54:18;7.20;99.90
51853;DHT22;37894;53.172;6.598;2023-04-08T07:56:44;7.40;99.90
51853;DHT22;37894;53.172;6.598;2023-04-08T07:59:10;6.60;99.90
51853;DHT22;37894;53.172;6.598;2023-04-08T08:01:36;7.50;99.90
51853;DHT22;37894;53.172;6.598;2023-04-08T08:04:02;6.70;99.90
51853;DHT22;37894;53.172;6.598;2023-04-08T08:06:28;7.50;99.90
51853;DHT22;37894;53.172;6.598;2023-04-08T08:08:54;7.50;99.90
51853;DHT22;37894;53.172;6.598;2023-04-08T08:11:20;8.40;99.90
51853;DHT22;37894;53.172;6.598;2023-04-08T08:13:46;7.50;99.90
51853;DHT22;37894;53.172;6.598;2023-04-08T08:18:39;7.80;99.90
51853;DHT22;37894;53.172;6.598;2023-04-08T08:21:05;7.80;99.90
51853;DHT22;37894;53.172;6.598;2023-04-08T08:23:31;7.60;99.90
51853;DHT22;37894;53.172;6.598;2023-04-08T08:26:05;7.90;99.90
51853;DHT22;37894;53.172;6.598;2023-04-08T08:28:32;7.20;99.90
51853;DHT22;37894;53.172;6.598;2023-04-08T08:30:58;7.60;99.90
51853;DHT22;37894;53.172;6.598;2023-04-08T08:33:24;7.60;99.90
51853;DHT22;37894;53.172;6.598;2023-04-08T08:35:50;7.60;99.90
51853;DHT22;37894;53.172;6.598;2023-04-08T08:38:17;7.80;99.90
51853;DHT22;37894;53.172;6.598;2023-04-08T08:40:43;7.70;99.90
51853;DHT22;37894;53.172;6.598;2023-04-08T08:43:10;7.70;99.90
51853;DHT22;37894;53.172;6.598;2023-04-08T08:45:40;7.60;99.90
51853;DHT22;37894;53.172;6.598;2023-04-08T08:48:07;8.40;99.90
51853;DHT22;37894;53.172;6.598;2023-04-08T08:50:35;7.00;99.90
51853;DHT22;37894;53.172;6.598;2023-04-08T08:53:02;7.60;99.90
51853;DHT22;37894;53.172;6.598;2023-04-08T08:55:30;7.50;99.90
51853;DHT22;37894;53.172;6.598;2023-04-08T08:57:59;7.70;99.90
51853;DHT22;37894;53.172;6.598;2023-04-08T09:00:37;8.40;99.90
51853;DHT22;37894;53.172;6.598;2023-04-08T09:03:23;7.80;99.90
51853;DHT22;37894;53.172;6.598;2023-04-08T09:06:00;7.50;99.90
51853;DHT22;37894;53.172;6.598;2023-04-08T09:08:31;7.80;99.90
51853;DHT22;37894;53.172;6.598;2023-04-08T09:11:15;7.90;99.90
51853;DHT22;37894;53.172;6.598;2023-04-08T09:13:41;7.40;99.90
51853;DHT22;37894;53.172;6.598;2023-04-08T09:16:12;7.60;99.90
51853;DHT22;37894;53.172;6.598;2023-04-08T09:18:39;7.60;99.90
51853;DHT22;37894;53.172;6.598;2023-04-08T09:21:07;7.60;99.90
51853;DHT22;37894;53.172;6.598;2023-04-08T09:23:41;7.40;99.90
51853;DHT22;37894;53.172;6.598;2023-04-08T09:26:18;7.50;99.90
51853;DHT22;37894;53.172;6.598;2023-04-08T09:29:08;7.50;99.90
51853;DHT22;37894;53.172;6.598;2023-04-08T09:31:36;6.90;99.90
51853;DHT22;37894;53.172;6.598;2023-04-08T09:34:15;7.50;99.90
51853;DHT22;37894;53.172;6.598;2023-04-08T09:39:09;7.60;99.90
51853;DHT22;37894;53.172;6.598;2023-04-08T09:41:35;7.60;99.90
51853;DHT22;37894;53.172;6.598;2023-04-08T09:44:06;7.70;99.90
51853;DHT22;37894;53.172;6.598;2023-04-08T09:46:39;7.60;99.90
51853;DHT22;37894;53.172;6.598;2023-04-08T09:55:01;8.60;99.90
51853;DHT22;37894;53.172;6.598;2023-04-08T09:57:30;8.20;99.90
51853;DHT22;37894;53.172;6.598;2023-04-08T10:02:51;9.30;99.90
51853;DHT22;37894;53.172;6.598;2023-04-08T10:05:20;8.60;99.90
51853;DHT22;37894;53.172;6.598;2023-04-08T10:07:47;8.60;99.90
51853;DHT22;37894;53.172;6.598;2023-04-08T10:10:13;8.40;99.90
51853;DHT22;37894;53.172;6.598;2023-04-08T10:12:40;8.60;99.90
51853;DHT22;37894;53.172;6.598;2023-04-08T10:17:55;9.60;99.90
51853;DHT22;37894;53.172;6.598;2023-04-08T10:20:45;8.90;99.90
51853;DHT22;37894;53.172;6.598;2023-04-08T10:23:16;8.70;99.90
51853;DHT22;37894;53.172;6.598;2023-04-08T10:25:43;9.00;99.90
51853;DHT22;37894;53.172;6.598;2023-04-08T10:30:51;8.50;99.90
51853;DHT22;37894;53.172;6.598;2023-04-08T10:33:24;8.70;99.90
51853;DHT22;37894;53.172;6.598;2023-04-08T10:38:31;8.90;99.90
51853;DHT22;37894;53.172;6.598;2023-04-08T10:40:57;9.50;99.90
51853;DHT22;37894;53.172;6.598;2023-04-08T10:43:22;9.10;99.90
51853;DHT22;37894;53.172;6.598;2023-04-08T10:45:48;8.60;99.90
51853;DHT22;37894;53.172;6.598;2023-04-08T10:48:24;9.10;99.90
51853;DHT22;37894;53.172;6.598;2023-04-08T10:51:02;9.00;99.90
51853;DHT22;37894;53.172;6.598;2023-04-08T10:53:33;9.20;99.90
51853;DHT22;37894;53.172;6.598;2023-04-08T10:58:33;9.10;99.90
51853;DHT22;37894;53.172;6.598;2023-04-08T11:01:03;9.50;99.90
51853;DHT22;37894;53.172;6.598;2023-04-08T11:03:34;9.50;99.90
51853;DHT22;37894;53.172;6.598;2023-04-08T11:06:02;9.30;99.90
51853;DHT22;37894;53.172;6.598;2023-04-08T11:08:29;9.40;99.90
51853;DHT22;37894;53.172;6.598;2023-04-08T11:10:55;9.60;99.90
51853;DHT22;37894;53.172;6.598;2023-04-08T11:13:21;9.40;99.90
51853;DHT22;37894;53.172;6.598;2023-04-08T11:15:49;9.60;99.90
51853;DHT22;37894;53.172;6.598;2023-04-08T11:18:15;9.40;99.90
51853;DHT22;37894;53.172;6.598;2023-04-08T11:20:43;9.50;99.90
51853;DHT22;37894;53.172;6.598;2023-04-08T11:23:15;9.50;99.90
51853;DHT22;37894;53.172;6.598;2023-04-08T11:25:42;10.50;99.90
51853;DHT22;37894;53.172;6.598;2023-04-08T11:28:12;9.60;99.90
51853;DHT22;37894;53.172;6.598;2023-04-08T11:30:39;9.70;99.90
51853;DHT22;37894;53.172;6.598;2023-04-08T11:33:09;9.70;99.90
51853;DHT22;37894;53.172;6.598;2023-04-08T11:35:39;9.40;99.90
51853;DHT22;37894;53.172;6.598;2023-04-08T11:38:06;9.60;99.90
51853;DHT22;37894;53.172;6.598;2023-04-08T11:40:32;10.00;99.90
51853;DHT22;37894;53.172;6.598;2023-04-08T11:42:58;9.30;99.90
51853;DHT22;37894;53.172;6.598;2023-04-08T11:45:24;9.90;99.90
51853;DHT22;37894;53.172;6.598;2023-04-08T11:47:50;10.00;99.90
51853;DHT22;37894;53.172;6.598;2023-04-08T11:50:25;9.60;99.90
51853;DHT22;37894;53.172;6.598;2023-04-08T11:52:52;9.90;99.90
51853;DHT22;37894;53.172;6.598;2023-04-08T11:57:51;9.70;99.90
51853;DHT22;37894;53.172;6.598;2023-04-08T12:00:18;10.00;99.90
51853;DHT22;37894;53.172;6.598;2023-04-08T12:02:45;9.90;99.90
51853;DHT22;37894;53.172;6.598;2023-04-08T12:05:13;9.80;99.90
51853;DHT22;37894;53.172;6.598;2023-04-08T12:07:38;10.50;99.90
51853;DHT22;37894;53.172;6.598;2023-04-08T12:10:05;9.40;99.90
51853;DHT22;37894;53.172;6.598;2023-04-08T12:12:31;9.90;99.90
51853;DHT22;37894;53.172;6.598;2023-04-08T12:14:56;9.80;99.90
51853;DHT22;37894;53.172;6.598;2023-04-08T12:17:22;10.10;99.90
51853;DHT22;37894;53.172;6.598;2023-04-08T12:19:48;10.20;99.90
51853;DHT22;37894;53.172;6.598;2023-04-08T12:22:13;10.00;99.90
51853;DHT22;37894;53.172;6.598;2023-04-08T12:24:39;10.40;99.90
51853;DHT22;37894;53.172;6.598;2023-04-08T12:27:05;10.00;99.90
51853;DHT22;37894;53.172;6.598;2023-04-08T12:29:31;10.00;99.90
51853;DHT22;37894;53.172;6.598;2023-04-08T12:31:56;9.70;99.90
51853;DHT22;37894;53.172;6.598;2023-04-08T12:34:22;10.00;99.90
51853;DHT22;37894;53.172;6.598;2023-04-08T12:36:49;10.00;99.90
51853;DHT22;37894;53.172;6.598;2023-04-08T12:39:14;10.40;99.90
51853;DHT22;37894;53.172;6.598;2023-04-08T12:41:40;10.20;99.90
51853;DHT22;37894;53.172;6.598;2023-04-08T12:44:06;10.40;99.90
51853;DHT22;37894;53.172;6.598;2023-04-08T12:46:32;9.50;99.90
51853;DHT22;37894;53.172;6.598;2023-04-08T12:51:25;10.10;99.90
51853;DHT22;37894;53.172;6.598;2023-04-08T12:53:51;10.40;99.90
51853;DHT22;37894;53.172;6.598;2023-04-08T12:56:16;10.10;99.90
51853;DHT22;37894;53.172;6.598;2023-04-08T12:58:42;10.00;99.90
51853;DHT22;37894;53.172;6.598;2023-04-08T13:01:08;10.10;99.90
51853;DHT22;37894;53.172;6.598;2023-04-08T13:03:34;10.10;99.90
51853;DHT22;37894;53.172;6.598;2023-04-08T13:06:00;10.00;99.90
51853;DHT22;37894;53.172;6.598;2023-04-08T13:08:26;10.10;99.90
51853;DHT22;37894;53.172;6.598;2023-04-08T13:10:52;11.00;99.90
51853;DHT22;37894;53.172;6.598;2023-04-08T13:13:18;9.90;99.90
51853;DHT22;37894;53.172;6.598;2023-04-08T13:15:44;10.10;99.90
51853;DHT22;37894;53.172;6.598;2023-04-08T13:18:11;10.20;99.90
51853;DHT22;37894;53.172;6.598;2023-04-08T13:20:37;10.30;99.90
51853;DHT22;37894;53.172;6.598;2023-04-08T13:23:03;10.30;99.90
51853;DHT22;37894;53.172;6.598;2023-04-08T13:25:29;10.40;99.90
51853;DHT22;37894;53.172;6.598;2023-04-08T13:27:54;10.40;99.90
51853;DHT22;37894;53.172;6.598;2023-04-08T13:30:20;10.40;99.90
51853;DHT22;37894;53.172;6.598;2023-04-08T13:32:46;10.20;99.90
51853;DHT22;37894;53.172;6.598;2023-04-08T13:35:12;10.40;99.90
51853;DHT22;37894;53.172;6.598;2023-04-08T13:37:37;10.40;99.90
51853;DHT22;37894;53.172;6.598;2023-04-08T13:40:04;10.40;99.90
51853;DHT22;37894;53.172;6.598;2023-04-08T13:42:30;10.50;99.90
51853;DHT22;37894;53.172;6.598;2023-04-08T13:44:57;10.60;99.90
51853;DHT22;37894;53.172;6.598;2023-04-08T13:47:23;10.80;99.90
51853;DHT22;37894;53.172;6.598;2023-04-08T13:49:49;10.70;99.90
51853;DHT22;37894;53.172;6.598;2023-04-08T13:52:15;10.70;99.90
51853;DHT22;37894;53.172;6.598;2023-04-08T13:54:41;10.80;99.90
51853;DHT22;37894;53.172;6.598;2023-04-08T13:57:07;10.90;99.90
51853;DHT22;37894;53.172;6.598;2023-04-08T13:59:33;10.90;99.90
51853;DHT22;37894;53.172;6.598;2023-04-08T14:01:58;11.00;99.90
51853;DHT22;37894;53.172;6.598;2023-04-08T14:04:24;11.00;99.90
51853;DHT22;37894;53.172;6.598;2023-04-08T14:06:50;11.00;99.90
51853;DHT22;37894;53.172;6.598;2023-04-08T14:09:18;11.00;99.90
51853;DHT22;37894;53.172;6.598;2023-04-08T14:11:43;11.10;99.90
51853;DHT22;37894;53.172;6.598;2023-04-08T14:14:09;11.10;99.90
51853;DHT22;37894;53.172;6.598;2023-04-08T14:16:35;11.30;99.90
51853;DHT22;37894;53.172;6.598;2023-04-08T14:19:01;11.30;99.90
51853;DHT22;37894;53.172;6.598;2023-04-08T14:21:27;11.20;99.90
51853;DHT22;37894;53.172;6.598;2023-04-08T14:23:53;11.20;99.90
51853;DHT22;37894;53.172;6.598;2023-04-08T14:26:19;11.10;99.90
51853;DHT22;37894;53.172;6.598;2023-04-08T14:28:45;11.00;99.90
51853;DHT22;37894;53.172;6.598;2023-04-08T14:31:12;11.50;99.90
51853;DHT22;37894;53.172;6.598;2023-04-08T14:33:38;11.20;99.90
51853;DHT22;37894;53.172;6.598;2023-04-08T14:36:05;11.20;99.90
51853;DHT22;37894;53.172;6.598;2023-04-08T14:38:31;11.00;99.90
51853;DHT22;37894;53.172;6.598;2023-04-08T14:40:57;11.30;99.90
51853;DHT22;37894;53.172;6.598;2023-04-08T14:43:23;11.60;99.90
51853;DHT22;37894;53.172;6.598;2023-04-08T14:45:49;11.50;99.90
51853;DHT22;37894;53.172;6.598;2023-04-08T14:48:16;11.50;99.90
51853;DHT22;37894;53.172;6.598;2023-04-08T14:50:41;11.60;99.90
51853;DHT22;37894;53.172;6.598;2023-04-08T14:53:07;11.70;99.90
51853;DHT22;37894;53.172;6.598;2023-04-08T14:55:33;11.80;99.90
51853;DHT22;37894;53.172;6.598;2023-04-08T14:57:59;11.80;99.90
51853;DHT22;37894;53.172;6.598;2023-04-08T15:00:25;11.90;99.90
51853;DHT22;37894;53.172;6.598;2023-04-08T15:02:51;11.90;99.90
51853;DHT22;37894;53.172;6.598;2023-04-08T15:05:16;11.90;99.90
51853;DHT22;37894;53.172;6.598;2023-04-08T15:07:42;12.00;99.90
51853;DHT22;37894;53.172;6.598;2023-04-08T15:10:08;12.00;99.90
51853;DHT22;37894;53.172;6.598;2023-04-08T15:12:34;11.90;99.90
51853;DHT22;37894;53.172;6.598;2023-04-08T15:15:01;12.00;99.90
51853;DHT22;37894;53.172;6.598;2023-04-08T15:17:27;11.80;99.90
51853;DHT22;37894;53.172;6.598;2023-04-08T15:19:53;11.70;99.90
51853;DHT22;37894;53.172;6.598;2023-04-08T15:22:18;11.70;99.90
51853;DHT22;37894;53.172;6.598;2023-04-08T15:24:45;11.70;99.90
51853;DHT22;37894;53.172;6.598;2023-04-08T15:27:11;12.10;99.90
51853;DHT22;37894;53.172;6.598;2023-04-08T15:29:37;11.60;99.90
51853;DHT22;37894;53.172;6.598;2023-04-08T15:32:03;11.50;99.90
51853;DHT22;37894;53.172;6.598;2023-04-08T15:34:29;10.50;99.90
51853;DHT22;37894;53.172;6.598;2023-04-08T15:36:54;11.40;99.90
51853;DHT22;37894;53.172;6.598;2023-04-08T15:39:23;11.40;99.90
51853;DHT22;37894;53.172;6.598;2023-04-08T15:41:48;11.40;99.90
51853;DHT22;37894;53.172;6.598;2023-04-08T15:44:15;11.70;99.90
51853;DHT22;37894;53.172;6.598;2023-04-08T15:46:40;11.70;99.90
51853;DHT22;37894;53.172;6.598;2023-04-08T15:49:07;11.60;99.90
51853;DHT22;37894;53.172;6.598;2023-04-08T15:51:33;11.60;99.90
51853;DHT22;37894;53.172;6.598;2023-04-08T15:53:59;11.70;99.90
51853;DHT22;37894;53.172;6.598;2023-04-08T15:56:26;11.70;99.90
51853;DHT22;37894;53.172;6.598;2023-04-08T15:58:54;11.70;99.90
51853;DHT22;37894;53.172;6.598;2023-04-08T16:01:21;11.70;99.90
51853;DHT22;37894;53.172;6.598;2023-04-08T16:03:47;11.20;99.90
51853;DHT22;37894;53.172;6.598;2023-04-08T16:06:13;11.60;99.90
51853;DHT22;37894;53.172;6.598;2023-04-08T16:08:39;11.60;99.90
51853;DHT22;37894;53.172;6.598;2023-04-08T16:11:05;12.90;99.90
51853;DHT22;37894;53.172;6.598;2023-04-08T16:13:32;12.00;99.90
51853;DHT22;37894;53.172;6.598;2023-04-08T16:16:00;11.60;99.90
51853;DHT22;37894;53.172;6.598;2023-04-08T16:18:27;11.60;99.90
51853;DHT22;37894;53.172;6.598;2023-04-08T16:20:53;11.50;99.90
51853;DHT22;37894;53.172;6.598;2023-04-08T16:23:19;11.50;99.90
51853;DHT22;37894;53.172;6.598;2023-04-08T16:25:45;11.30;99.90
51853;DHT22;37894;53.172;6.598;2023-04-08T16:28:11;11.40;99.90
51853;DHT22;37894;53.172;6.598;2023-04-08T16:30:37;11.20;99.90
51853;DHT22;37894;53.172;6.598;2023-04-08T16:33:04;11.20;99.90
51853;DHT22;37894;53.172;6.598;2023-04-08T16:35:30;10.30;99.90
51853;DHT22;37894;53.172;6.598;2023-04-08T16:37:56;11.10;99.90
51853;DHT22;37894;53.172;6.598;2023-04-08T16:40:22;11.20;99.90
51853;DHT22;37894;53.172;6.598;2023-04-08T16:42:48;11.00;99.90
51853;DHT22;37894;53.172;6.598;2023-04-08T16:45:14;11.20;99.90
51853;DHT22;37894;53.172;6.598;2023-04-08T16:47:40;11.20;99.90
51853;DHT22;37894;53.172;6.598;2023-04-08T16:50:08;11.90;99.90
51853;DHT22;37894;53.172;6.598;2023-04-08T16:52:34;11.00;99.90
51853;DHT22;37894;53.172;6.598;2023-04-08T16:55:00;11.00;99.90
51853;DHT22;37894;53.172;6.598;2023-04-08T16:57:26;10.90;99.90
51853;DHT22;37894;53.172;6.598;2023-04-08T16:59:52;10.90;99.90
51853;DHT22;37894;53.172;6.598;2023-04-08T17:02:18;13.00;99.90
51853;DHT22;37894;53.172;6.598;2023-04-08T17:04:48;10.90;99.90
51853;DHT22;37894;53.172;6.598;2023-04-08T17:07:13;10.90;99.90
51853;DHT22;37894;53.172;6.598;2023-04-08T17:09:39;10.40;99.90
51853;DHT22;37894;53.172;6.598;2023-04-08T17:12:05;11.40;99.90
51853;DHT22;37894;53.172;6.598;2023-04-08T17:14:32;11.10;99.90
51853;DHT22;37894;53.172;6.598;2023-04-08T17:16:58;11.00;99.90
51853;DHT22;37894;53.172;6.598;2023-04-08T17:19:23;11.00;99.90
51853;DHT22;37894;53.172;6.598;2023-04-08T17:21:49;10.80;99.90
51853;DHT22;37894;53.172;6.598;2023-04-08T17:24:16;10.90;99.90
51853;DHT22;37894;53.172;6.598;2023-04-08T17:26:42;11.50;99.90
51853;DHT22;37894;53.172;6.598;2023-04-08T17:29:07;10.80;99.90
51853;DHT22;37894;53.172;6.598;2023-04-08T17:31:34;10.90;99.90
51853;DHT22;37894;53.172;6.598;2023-04-08T17:34:01;10.70;99.90
51853;DHT22;37894;53.172;6.598;2023-04-08T17:36:27;11.20;99.90
51853;DHT22;37894;53.172;6.598;2023-04-08T17:38:53;9.70;99.90
51853;DHT22;37894;53.172;6.598;2023-04-08T17:41:19;9.80;99.90